createdAt,value
2018-01-15T00:02:24.176Z,17.70
2018-01-15T00:08:28.200Z,20.00
2018-01-15T00:14:31.781Z,18.50
2018-01-15T00:20:35.246Z,18.27
2018-01-15T00:26:38.729Z,19.87
2018-01-15T00:32:42.962Z,18.50
2018-01-15T00:38:46.450Z,17.73
2018-01-15T00:44:49.955Z,22.17
2018-01-15T00:50:53.417Z,19.57
2018-01-15T00:56:56.906Z,21.43
2018-01-15T01:03:01.447Z,20.97
2018-01-15T01:09:05.127Z,21.40
2018-01-15T01:15:08.597Z,19.63
2018-01-15T01:21:13.646Z,22.73
2018-01-15T01:27:17.275Z,21.57
2018-01-15T01:33:20.713Z,19.80
2018-01-15T01:39:25.017Z,21.80
2018-01-15T01:45:28.622Z,22.43
2018-01-15T01:51:32.107Z,21.53
2018-01-15T01:57:35.592Z,17.87
2018-01-15T02:03:39.069Z,20.50
2018-01-15T02:09:42.696Z,19.13
2018-01-15T02:15:46.176Z,19.30
2018-01-15T02:21:49.658Z,23.93
2018-01-15T02:27:53.987Z,24.07
2018-01-15T02:33:57.682Z,23.33
2018-01-15T02:40:01.985Z,16.67
2018-01-15T02:46:05.458Z,19.77
2018-01-15T02:52:08.970Z,20.60
2018-01-15T02:58:13.217Z,21.20
2018-01-15T03:04:16.722Z,18.33
2018-01-15T03:10:20.181Z,20.30
2018-01-15T03:16:24.154Z,29.13
2018-01-15T03:22:27.916Z,22.87
2018-01-15T03:28:31.577Z,23.80
2018-01-15T03:34:35.359Z,23.00
2018-01-15T03:40:38.910Z,21.23
2018-01-15T03:46:42.389Z,21.40
2018-01-15T03:52:45.867Z,18.90
2018-01-15T03:58:49.318Z,24.20
2018-01-15T04:04:53.061Z,18.07
2018-01-15T04:10:57.537Z,19.53
2018-01-15T04:17:01.787Z,22.73
2018-01-15T04:23:05.250Z,20.27
2018-01-15T04:29:08.741Z,18.90
2018-01-15T04:35:12.240Z,18.57
2018-01-15T04:41:15.704Z,21.53
2018-01-15T04:47:19.277Z,21.10
2018-01-15T04:53:23.634Z,20.13
2018-01-15T04:59:27.254Z,20.87
2018-01-15T05:05:30.769Z,18.23
2018-01-15T05:11:35.135Z,20.97
2018-01-15T05:17:39.481Z,21.63
2018-01-15T05:23:42.950Z,19.37
2018-01-15T05:29:46.464Z,21.07
2018-01-15T05:35:50.066Z,21.47
2018-01-15T05:41:53.840Z,19.70
2018-01-15T05:47:57.555Z,28.40
2018-01-15T05:54:01.162Z,19.27
2018-01-15T06:00:04.687Z,19.90
2018-01-15T06:06:08.980Z,19.77
2018-01-15T06:12:12.551Z,22.00
2018-01-15T06:18:16.053Z,20.80
2018-01-15T06:24:19.576Z,21.70
2018-01-15T06:30:23.976Z,18.80
2018-01-15T06:36:27.525Z,22.33
2018-01-15T06:42:31.079Z,23.47
2018-01-15T06:48:34.574Z,17.77
2018-01-15T06:54:38.042Z,22.37
2018-01-15T07:00:42.481Z,17.47
2018-01-15T07:06:45.949Z,21.40
2018-01-15T07:12:49.554Z,22.47
2018-01-15T07:18:53.058Z,17.10
2018-01-15T07:24:56.886Z,21.63
2018-01-15T07:31:00.432Z,21.83
2018-01-15T07:37:03.912Z,19.53
2018-01-15T07:43:07.387Z,21.87
2018-01-15T07:49:11.159Z,30.07
2018-01-15T07:55:15.392Z,18.40
2018-01-15T08:01:18.882Z,22.50
2018-01-15T08:07:23.188Z,20.60
2018-01-15T08:13:27.115Z,24.10
2018-01-15T08:19:30.590Z,24.17
2018-01-15T08:25:34.881Z,20.37
2018-01-15T08:31:38.517Z,38.20
2018-01-15T08:37:42.823Z,21.93
2018-01-15T08:43:46.479Z,20.03
2018-01-15T08:49:49.937Z,22.67
2018-01-15T08:55:53.427Z,24.90
2018-01-15T09:01:56.987Z,25.30
2018-01-15T09:08:00.654Z,31.27
2018-01-15T09:14:05.208Z,28.30
2018-01-15T09:20:09.525Z,32.70
2018-01-15T09:26:13.019Z,39.30
2018-01-15T09:32:16.509Z,30.67
2018-01-15T09:38:19.992Z,54.67
2018-01-15T09:44:23.607Z,26.40
2018-01-15T09:50:27.127Z,35.10
2018-01-15T09:56:30.673Z,25.23
2018-01-15T10:02:34.152Z,26.57
2018-01-15T10:08:37.654Z,29.87
2018-01-15T10:14:41.981Z,33.83
2018-01-15T10:20:45.450Z,23.90
2018-01-15T10:26:48.981Z,23.50
2018-01-15T10:32:52.462Z,22.00
2018-01-15T10:38:56.374Z,21.47
2018-01-15T10:45:00.151Z,21.20
2018-01-15T10:51:03.755Z,26.63
2018-01-15T10:57:07.269Z,24.53
2018-01-15T11:03:10.792Z,28.83
2018-01-15T11:09:14.276Z,18.83
2018-01-15T11:15:17.871Z,28.37
2018-01-15T11:21:21.473Z,30.77
2018-01-15T11:27:25.294Z,114.77
2018-01-15T11:33:28.857Z,70.87
2018-01-15T11:39:33.085Z,30.50
2018-01-15T11:45:36.615Z,33.10
2018-01-15T11:51:40.095Z,31.67
2018-01-15T11:57:43.586Z,32.43
2018-01-15T12:03:47.837Z,37.37
2018-01-15T12:09:51.286Z,28.43
2018-01-15T12:15:54.757Z,35.20
2018-01-15T12:21:59.232Z,31.13
2018-01-15T12:28:02.779Z,26.17
2018-01-15T12:34:06.372Z,29.50
2018-01-15T12:40:09.991Z,25.97
2018-01-15T12:46:13.468Z,27.80
2018-01-15T12:52:17.733Z,24.13
2018-01-15T12:58:21.945Z,24.87
2018-01-15T13:04:25.430Z,23.43
2018-01-15T13:10:29.328Z,24.67
2018-01-15T13:16:32.848Z,26.50
2018-01-15T13:22:36.348Z,25.73
2018-01-15T13:28:40.100Z,22.90
2018-01-15T13:34:44.346Z,26.50
2018-01-15T13:40:48.617Z,26.30
2018-01-15T13:46:52.149Z,27.93
2018-01-15T13:52:55.839Z,28.80
2018-01-15T13:58:59.391Z,24.50
2018-01-15T14:05:02.876Z,28.97
2018-01-15T14:11:06.570Z,30.00
2018-01-15T14:17:10.029Z,29.50
2018-01-15T14:23:13.492Z,23.53
2018-01-15T14:29:18.178Z,32.50
2018-01-15T14:35:21.645Z,29.30
2018-01-15T14:41:25.613Z,29.33
2018-01-15T14:47:29.223Z,28.70
2018-01-15T14:53:32.767Z,27.53
2018-01-15T14:59:36.227Z,30.57
2018-01-15T15:05:40.480Z,28.10
2018-01-15T15:11:43.937Z,30.80
2018-01-15T15:17:47.414Z,29.20
2018-01-15T15:23:50.895Z,26.93
2018-01-15T15:29:55.355Z,36.70
2018-01-15T15:35:59.092Z,22.90
2018-01-15T15:42:02.647Z,29.47
2018-01-15T15:48:06.296Z,30.27
2018-01-15T15:54:09.825Z,30.70
2018-01-15T16:00:14.194Z,27.97
2018-01-15T16:06:18.477Z,29.27
2018-01-15T16:12:21.948Z,29.67
2018-01-15T16:18:26.277Z,29.50
2018-01-15T16:24:30.635Z,27.93
2018-01-15T16:30:34.436Z,38.20
2018-01-15T16:36:37.949Z,25.17
2018-01-15T16:42:41.426Z,27.97
2018-01-15T16:48:44.929Z,26.87
2018-01-15T16:54:48.442Z,27.53
2018-01-15T17:00:52.682Z,26.80
2018-01-15T17:06:56.198Z,24.97
2018-01-15T17:13:00.595Z,28.73
2018-01-15T17:19:04.059Z,27.83
2018-01-15T17:25:07.679Z,26.57
2018-01-15T17:31:11.201Z,30.03
2018-01-15T17:37:14.761Z,35.93
2018-01-15T17:43:19.045Z,26.20
2018-01-15T17:49:24.095Z,24.37
2018-01-15T17:55:27.667Z,34.90
2018-01-15T18:01:31.223Z,27.43
2018-01-15T18:07:34.713Z,25.00
2018-01-15T18:13:38.248Z,23.50
2018-01-15T18:19:42.536Z,28.70
2018-01-15T18:25:47.006Z,27.30
2018-01-15T18:31:51.221Z,26.73
2018-01-15T18:37:54.826Z,34.23
2018-01-15T18:43:59.113Z,32.60
2018-01-15T18:50:02.583Z,25.17
2018-01-15T18:56:06.053Z,27.20
2018-01-15T19:02:09.543Z,27.97
2018-01-15T19:08:13.018Z,44.10
2018-01-15T19:14:17.260Z,27.07
2018-01-15T19:20:20.759Z,32.67
2018-01-15T19:26:24.264Z,36.33
2018-01-15T19:32:27.741Z,33.20
2018-01-15T19:38:33.246Z,26.63
2018-01-15T19:44:42.983Z,26.20
2018-01-15T19:57:27.177Z,29.83
2018-01-15T20:03:36.088Z,26.30
2018-01-15T20:09:45.830Z,25.23
2018-01-15T20:15:49.292Z,25.77
2018-01-15T20:21:53.024Z,27.33
2018-01-15T20:27:57.945Z,24.73
2018-01-15T20:34:01.416Z,25.90
2018-01-15T20:40:04.908Z,27.50
2018-01-15T20:46:08.440Z,22.23
2018-01-15T20:52:11.909Z,24.40
2018-01-15T20:58:16.290Z,25.40
2018-01-15T21:04:20.771Z,16.33
2018-01-15T21:10:25.416Z,13.50
2018-01-15T21:16:29.007Z,19.60
2018-01-15T21:22:32.447Z,13.17
2018-01-15T21:28:35.947Z,13.50
2018-01-15T21:34:39.428Z,11.10
2018-01-15T21:40:42.885Z,13.43
2018-01-15T21:46:46.490Z,13.60
2018-01-15T21:52:50.063Z,15.70
2018-01-15T21:58:54.996Z,7.40
2018-01-15T22:04:58.555Z,9.93
2018-01-15T22:11:01.987Z,10.33
2018-01-15T22:17:05.806Z,9.90
2018-01-15T22:23:09.591Z,6.40
2018-01-15T22:29:13.109Z,8.20
2018-01-15T22:35:16.643Z,4.33
2018-01-15T22:41:20.135Z,3.27
2018-01-15T22:47:23.700Z,3.57
2018-01-15T22:53:28.027Z,4.13
2018-01-15T22:59:31.559Z,2.93
2018-01-15T23:05:35.005Z,3.27
2018-01-15T23:11:38.444Z,2.17
2018-01-15T23:17:42.694Z,3.10
2018-01-15T23:23:46.145Z,3.70
2018-01-15T23:29:49.609Z,2.10
2018-01-15T23:35:54.094Z,3.17
2018-01-15T23:41:57.957Z,2.13
2018-01-15T23:48:02.265Z,1.73
2018-01-15T23:54:05.823Z,3.30
